Time;durP1;ratioP1;P1;durP2;ratioP2;P2;SDS_P1;SDS_P2;PMS_P1;PMS_P2;Temp;Humidity;BMP_temperature;BMP_pressure;BME280_temperature;BME280_humidity;BME280_pressure;Samples;Min_cycle;Max_cycle;Signal;HPM_P1;HPM_P2
2022/08/26 00:00:30;;;;;;;51.88;42.38;;;21.10;99.90;;;;;;6158669;23;20408;-77
2022/08/26 00:02:57;;;;;;;50.92;43.55;;;21.10;99.90;;;;;;6182432;23;20367;-77
2022/08/26 00:05:23;;;;;;;48.05;42.90;;;21.00;99.90;;;;;;6158711;23;20373;-78
2022/08/26 00:07:49;;;;;;;48.72;41.67;;;;;;;;;;6184011;23;20378;-77
2022/08/26 00:10:16;;;;;;;50.30;41.60;;;20.80;99.90;;;;;;6183236;23;20389;-77
2022/08/26 00:12:42;;;;;;;48.33;40.55;;;;;;;;;;6183994;23;20357;-77
2022/08/26 00:15:10;;;;;;;49.00;38.70;;;21.30;99.90;;;;;;6182788;23;20397;-77
2022/08/26 00:17:36;;;;;;;49.03;36.63;;;;;;;;;;6183587;23;20368;-77
2022/08/26 00:20:05;;;;;;;50.80;35.90;;;21.30;99.90;;;;;;6182738;23;20447;-77
2022/08/26 00:22:32;;;;;;;49.45;35.88;;;;;;;;;;6157130;23;20835;-77
2022/08/26 00:24:59;;;;;;;46.40;34.97;;;;;;;;;;6184563;23;20850;-77
2022/08/26 00:27:25;;;;;;;47.28;35.35;;;;;;;;;;6184451;23;20385;-77
2022/08/26 00:29:52;;;;;;;43.90;33.65;;;;;;;;;;6182152;23;20361;-78
2022/08/26 00:32:18;;;;;;;46.88;34.00;;;;;;;;;;6181126;23;20819;-77
2022/08/26 00:34:43;;;;;;;45.97;33.17;;;21.00;99.90;;;;;;6184424;23;20378;-79
2022/08/26 00:37:09;;;;;;;45.97;32.85;;;21.10;99.90;;;;;;6134277;23;20397;-78
2022/08/26 00:39:35;;;;;;;40.53;32.25;;;20.80;99.90;;;;;;6133414;23;20365;-78
2022/08/26 00:42:01;;;;;;;41.93;32.53;;;21.00;99.90;;;;;;6132922;23;20376;-77
2022/08/26 00:44:26;;;;;;;42.92;32.95;;;20.90;99.90;;;;;;6132636;23;20423;-78
2022/08/26 00:46:57;;;;;;;41.63;32.05;;;21.20;99.90;;;;;;6109131;23;20408;-78
2022/08/26 00:49:37;;;;;;;39.28;32.33;;;20.80;99.90;;;;;;6157341;23;20397;-78
2022/08/26 00:52:07;;;;;;;41.63;31.25;;;21.00;99.90;;;;;;6157466;23;20373;-78
2022/08/26 00:54:34;;;;;;;39.00;31.33;;;;;;;;;;6157535;23;20465;-79
2022/08/26 00:57:08;;;;;;;44.78;30.67;;;20.70;99.90;;;;;;6157712;23;20376;-77
2022/08/26 00:59:34;;;;;;;42.88;31.55;;;;;;;;;;6182232;23;20732;-77
2022/08/26 01:02:00;;;;;;;42.15;31.27;;;20.90;99.90;;;;;;6157573;23;20361;-78
2022/08/26 01:04:28;;;;;;;40.95;30.33;;;20.60;99.90;;;;;;6184333;23;20793;-76
2022/08/26 01:06:55;;;;;;;43.45;30.17;;;20.80;99.90;;;;;;6157542;23;20366;-76
2022/08/26 01:09:22;;;;;;;38.88;29.30;;;20.80;99.90;;;;;;6183386;23;20871;-76
2022/08/26 01:11:51;;;;;;;42.05;29.92;;;20.70;99.90;;;;;;6106974;23;20391;-76
2022/08/26 01:14:18;;;;;;;40.45;29.40;;;20.90;99.90;;;;;;6156465;23;20759;-76
2022/08/26 01:16:44;;;;;;;41.77;29.70;;;20.70;99.90;;;;;;6158012;23;20520;-77
2022/08/26 01:19:20;;;;;;;42.40;29.47;;;20.80;99.90;;;;;;6158185;23;20381;-77
2022/08/26 01:22:04;;;;;;;38.37;28.30;;;20.70;99.90;;;;;;6157672;23;20408;-76
2022/08/26 01:24:30;;;;;;;39.03;28.67;;;20.70;99.90;;;;;;6158307;23;20424;-78
2022/08/26 01:27:03;;;;;;;42.95;27.58;;;21.00;99.90;;;;;;6157537;23;20428;-77
2022/08/26 01:29:31;;;;;;;38.30;27.55;;;20.70;99.90;;;;;;6156943;23;20400;-77
2022/08/26 01:31:57;;;;;;;39.58;28.05;;;20.70;99.90;;;;;;6181074;23;20365;-78
2022/08/26 01:34:25;;;;;;;36.00;25.80;;;20.70;99.90;;;;;;6110568;23;20913;-78
2022/08/26 01:36:57;;;;;;;35.28;25.92;;;20.70;99.90;;;;;;6182811;23;20443;-77
2022/08/26 01:39:23;;;;;;;35.63;24.67;;;20.80;99.90;;;;;;6157938;23;20369;-78
2022/08/26 01:41:53;;;;;;;33.88;25.23;;;21.10;99.90;;;;;;6181746;23;20373;-77
2022/08/26 01:44:22;;;;;;;36.92;24.80;;;20.80;99.90;;;;;;6182615;23;20376;-77
2022/08/26 01:46:51;;;;;;;37.40;24.58;;;20.80;99.90;;;;;;6184049;23;20361;-78
2022/08/26 01:49:18;;;;;;;37.55;24.52;;;20.70;99.90;;;;;;6182891;23;20420;-77
2022/08/26 01:51:46;;;;;;;37.25;23.15;;;20.70;99.90;;;;;;6183702;23;20862;-78
2022/08/26 01:54:12;;;;;;;32.92;22.88;;;20.60;99.90;;;;;;6157802;23;20457;-77
2022/08/26 01:56:38;;;;;;;34.00;22.93;;;20.60;99.90;;;;;;6181797;23;20364;-79
2022/08/26 01:59:07;;;;;;;33.10;22.80;;;20.60;99.90;;;;;;6182214;23;20878;-77
2022/08/26 02:01:34;;;;;;;31.77;22.20;;;20.70;99.90;;;;;;6182999;23;20368;-76
2022/08/26 02:04:06;;;;;;;32.65;21.98;;;;;;;;;;6156887;23;20377;-77
2022/08/26 02:06:32;;;;;;;31.20;21.58;;;;;;;;;;6182242;23;20373;-77
2022/08/26 02:09:01;;;;;;;29.40;20.77;;;20.40;99.90;;;;;;6181654;23;20463;-78
2022/08/26 02:11:27;;;;;;;31.00;21.90;;;;;;;;;;6183279;23;20902;-77
2022/08/26 02:14:02;;;;;;;29.08;20.50;;;20.60;99.90;;;;;;6156896;23;20732;-77
2022/08/26 02:16:33;;;;;;;31.60;20.73;;;20.60;99.90;;;;;;6183791;23;20393;-77
2022/08/26 02:19:00;;;;;;;30.27;20.35;;;20.60;99.90;;;;;;6183619;23;20862;-78
2022/08/26 02:21:26;;;;;;;28.40;19.10;;;20.80;99.90;;;;;;6156241;23;20378;-76
2022/08/26 02:23:52;;;;;;;29.30;19.52;;;20.70;99.90;;;;;;6182223;23;20377;-76
2022/08/26 02:26:22;;;;;;;31.87;19.87;;;20.70;99.90;;;;;;6182206;23;20832;-77
2022/08/26 02:29:08;;;;;;;30.33;20.70;;;20.60;99.90;;;;;;6183609;23;20385;-76
2022/08/26 02:31:34;;;;;;;30.52;20.55;;;;;;;;;;6182790;23;20373;-77
2022/08/26 02:34:18;;;;;;;31.63;20.52;;;20.50;99.90;;;;;;6181127;23;20370;-76
2022/08/26 02:36:44;;;;;;;28.02;20.35;;;;;;;;;;6183695;23;20679;-78
2022/08/26 02:39:10;;;;;;;31.23;19.63;;;20.80;99.90;;;;;;6132375;23;20468;-77
2022/08/26 02:41:37;;;;;;;31.85;20.33;;;;;;;;;;6158527;23;20427;-77
2022/08/26 02:44:03;;;;;;;34.20;19.97;;;20.80;99.90;;;;;;6183900;23;20361;-76
2022/08/26 02:46:30;;;;;;;27.67;19.02;;;20.70;99.90;;;;;;6134183;23;20373;-76
2022/08/26 02:48:56;;;;;;;29.15;18.33;;;;;;;;;;6157102;23;20417;-77
2022/08/26 02:51:22;;;;;;;32.20;18.02;;;20.80;99.90;;;;;;6134876;23;20700;-77
2022/08/26 02:53:48;;;;;;;24.90;16.95;;;20.60;99.90;;;;;;6158309;23;20377;-77
2022/08/26 02:56:13;;;;;;;25.83;16.65;;;20.60;99.90;;;;;;6185895;23;20367;-78
2022/08/26 02:58:39;;;;;;;30.63;16.93;;;;;;;;;;6185150;23;20508;-78
2022/08/26 03:01:05;;;;;;;30.20;16.80;;;20.60;99.90;;;;;;6158680;23;20361;-78
2022/08/26 03:03:31;;;;;;;26.13;16.60;;;20.80;99.90;;;;;;6159473;23;20680;-77
2022/08/26 03:05:57;;;;;;;27.27;16.17;;;20.50;99.90;;;;;;6184707;23;20361;-78
2022/08/26 03:08:23;;;;;;;26.27;16.20;;;20.70;99.90;;;;;;6158941;23;20396;-78
2022/08/26 03:10:49;;;;;;;26.95;16.50;;;;;;;;;;6185390;23;20653;-76
2022/08/26 03:13:15;;;;;;;25.13;15.82;;;;;;;;;;6184755;23;20432;-77
2022/08/26 03:15:41;;;;;;;30.15;16.90;;;20.40;99.90;;;;;;6157385;23;20889;-77
2022/08/26 03:18:07;;;;;;;27.15;15.98;;;20.50;99.90;;;;;;6133693;23;20373;-78
2022/08/26 03:20:33;;;;;;;25.50;15.57;;;20.50;99.90;;;;;;6109498;23;20380;-77
2022/08/26 03:22:59;;;;;;;25.17;15.30;;;20.50;99.90;;;;;;6185247;23;20373;-77
2022/08/26 03:25:25;;;;;;;26.98;15.07;;;20.60;99.90;;;;;;6158750;23;20778;-77
2022/08/26 03:27:52;;;;;;;22.17;14.55;;;20.60;99.90;;;;;;6133626;23;20451;-77
2022/08/26 03:33:03;;;;;;;21.30;12.20;;;;;;;;;;6158393;23;20369;-77
2022/08/26 03:35:30;;;;;;;20.55;12.05;;;20.40;99.90;;;;;;6184545;23;20385;-77
2022/08/26 03:37:56;;;;;;;20.50;11.60;;;20.80;99.90;;;;;;6158983;23;20380;-77
2022/08/26 03:40:22;;;;;;;24.47;12.50;;;20.40;99.90;;;;;;6183820;23;20836;-77
2022/08/26 03:42:49;;;;;;;20.43;11.53;;;20.90;99.90;;;;;;6184588;23;20365;-78
2022/08/26 03:45:16;;;;;;;22.85;11.68;;;;;;;;;;6158982;23;20423;-77
2022/08/26 03:47:43;;;;;;;19.55;10.63;;;;;;;;;;6185029;23;20385;-77
2022/08/26 03:50:11;;;;;;;18.63;10.65;;;20.50;99.90;;;;;;6133853;23;20952;-78
2022/08/26 03:52:37;;;;;;;19.42;11.13;;;20.40;99.90;;;;;;6157851;23;20851;-78
2022/08/26 03:55:05;;;;;;;22.20;10.47;;;20.20;99.90;;;;;;6158108;23;20464;-77
2022/08/26 03:57:31;;;;;;;18.67;10.55;;;;;;;;;;6133055;23;20377;-77
2022/08/26 03:59:57;;;;;;;22.70;10.43;;;;;;;;;;6158561;23;20490;-77
2022/08/26 04:02:23;;;;;;;18.75;10.18;;;;;;;;;;6158358;23;20365;-77
2022/08/26 04:04:49;;;;;;;20.98;10.32;;;20.60;99.90;;;;;;6184851;23;20365;-77
2022/08/26 04:07:15;;;;;;;18.58;9.48;;;;;;;;;;6184522;23;20379;-75
2022/08/26 04:09:41;;;;;;;18.75;11.05;;;20.30;99.90;;;;;;6183143;23;20366;-78
2022/08/26 04:12:08;;;;;;;18.40;10.10;;;;;;;;;;6157734;23;20858;-78
2022/08/26 04:14:36;;;;;;;17.75;10.55;;;20.40;99.90;;;;;;6157371;23;20372;-78
2022/08/26 04:17:03;;;;;;;24.13;10.77;;;20.60;99.90;;;;;;6157949;23;20365;-77
2022/08/26 04:19:30;;;;;;;23.73;11.27;;;20.50;99.90;;;;;;6157985;23;20464;-77
2022/08/26 04:21:56;;;;;;;19.48;10.75;;;20.30;99.90;;;;;;6132460;23;20377;-77
2022/08/26 04:24:24;;;;;;;18.13;9.48;;;20.40;99.90;;;;;;6183504;23;20372;-77
2022/08/26 04:26:50;;;;;;;19.05;9.77;;;20.50;99.90;;;;;;6156984;23;20365;-77
2022/08/26 04:29:20;;;;;;;19.73;9.50;;;20.50;99.90;;;;;;6134437;23;20435;-77
2022/08/26 04:31:47;;;;;;;18.27;8.73;;;20.20;99.90;;;;;;6159085;23;20512;-77
2022/08/26 04:34:13;;;;;;;19.27;9.18;;;20.40;99.90;;;;;;6157330;23;20385;-75
2022/08/26 04:36:39;;;;;;;20.55;8.55;;;20.50;99.90;;;;;;6185231;23;20361;-78
2022/08/26 04:39:06;;;;;;;16.13;8.85;;;20.30;99.90;;;;;;6157700;23;20369;-78
2022/08/26 04:41:32;;;;;;;16.87;8.40;;;20.60;99.90;;;;;;6182836;23;20784;-77
2022/08/26 04:43:58;;;;;;;18.77;8.02;;;20.40;99.90;;;;;;6158343;23;20373;-78
2022/08/26 04:46:24;;;;;;;17.75;8.00;;;20.30;99.90;;;;;;6181088;23;20843;-78
2022/08/26 04:48:51;;;;;;;19.25;7.88;;;20.40;99.90;;;;;;6157723;23;20397;-78
2022/08/26 04:51:19;;;;;;;20.70;7.68;;;20.30;99.90;;;;;;6181665;23;20415;-78
2022/08/26 04:53:45;;;;;;;19.10;8.43;;;20.30;99.90;;;;;;6181994;23;20384;-78
2022/08/26 04:56:11;;;;;;;18.90;7.80;;;20.30;99.90;;;;;;6182147;23;20369;-77
2022/08/26 04:58:38;;;;;;;18.08;7.47;;;20.30;99.90;;;;;;6182060;23;20397;-77
2022/08/26 05:01:04;;;;;;;21.00;7.18;;;20.20;99.90;;;;;;6156402;23;20369;-77
2022/08/26 05:03:30;;;;;;;20.50;7.07;;;20.20;99.90;;;;;;6182150;23;20700;-79
2022/08/26 05:05:57;;;;;;;17.80;6.43;;;20.40;99.90;;;;;;6182334;23;20369;-78
2022/08/26 05:08:23;;;;;;;18.55;6.25;;;20.30;99.90;;;;;;6182146;23;20389;-78
2022/08/26 05:10:54;;;;;;;19.65;6.35;;;20.20;99.90;;;;;;6182596;23;20373;-78
2022/08/26 05:13:22;;;;;;;20.23;6.40;;;20.40;99.90;;;;;;6181060;23;20747;-78
2022/08/26 05:15:48;;;;;;;19.90;6.90;;;20.30;99.90;;;;;;6182491;23;20362;-79
2022/08/26 05:18:15;;;;;;;19.23;5.93;;;20.20;99.90;;;;;;6181165;23;20420;-78
2022/08/26 05:20:47;;;;;;;16.85;6.10;;;20.30;99.90;;;;;;6181268;23;20383;-80
2022/08/26 05:23:13;;;;;;;19.73;6.55;;;;;;;;;;6182117;23;20417;-79
2022/08/26 05:25:42;;;;;;;20.80;6.72;;;20.40;99.90;;;;;;6181931;23;20427;-79
2022/08/26 05:28:09;;;;;;;15.40;5.45;;;20.60;99.90;;;;;;6157105;23;20871;-77
2022/08/26 05:30:36;;;;;;;13.90;6.10;;;;;;;;;;6157331;23;20714;-78
2022/08/26 05:33:03;;;;;;;17.67;7.03;;;;;;;;;;6157332;23;20392;-78
2022/08/26 05:35:30;;;;;;;16.92;6.80;;;20.60;99.90;;;;;;6182006;23;20472;-79
2022/08/26 05:38:05;;;;;;;20.13;6.57;;;;;;;;;;6182343;23;20380;-78
2022/08/26 05:40:35;;;;;;;19.93;6.40;;;20.40;99.90;;;;;;6156690;23;20369;-78
2022/08/26 05:43:02;;;;;;;17.83;6.18;;;20.40;99.90;;;;;;6155996;23;20377;-78
2022/08/26 05:45:30;;;;;;;18.40;6.38;;;;;;;;;;6157632;23;20820;-79
2022/08/26 05:47:57;;;;;;;18.60;6.35;;;;;;;;;;6207365;23;20421;-77
2022/08/26 05:50:24;;;;;;;15.18;5.93;;;20.30;99.90;;;;;;6181691;23;20369;-78
2022/08/26 05:52:50;;;;;;;18.45;6.25;;;20.40;99.90;;;;;;6157373;23;20391;-79
2022/08/26 05:55:17;;;;;;;16.00;6.10;;;;;;;;;;6181173;23;20361;-79
2022/08/26 05:57:43;;;;;;;18.15;5.90;;;20.40;99.90;;;;;;6156665;23;20401;-78
2022/08/26 06:00:11;;;;;;;17.10;6.40;;;20.40;99.90;;;;;;6180569;23;20397;-77
2022/08/26 06:02:38;;;;;;;14.80;5.90;;;20.40;99.90;;;;;;6155819;23;20370;-78
2022/08/26 06:05:04;;;;;;;16.08;5.65;;;;;;;;;;6132966;23;20377;-79
2022/08/26 06:10:14;;;;;;;21.38;6.30;;;;;;;;;;6160985;23;20376;-78
2022/08/26 06:12:41;;;;;;;14.38;6.10;;;20.50;99.90;;;;;;6180885;23;20372;-79
2022/08/26 06:15:08;;;;;;;15.00;5.32;;;20.20;99.90;;;;;;6183211;23;20365;-79
2022/08/26 06:17:34;;;;;;;16.57;5.90;;;;;;;;;;6158857;23;20376;-79
2022/08/26 06:19:59;;;;;;;17.45;5.18;;;20.60;99.90;;;;;;6184201;23;20364;-78
2022/08/26 06:27:54;;;;;;;15.63;4.78;;;20.20;99.90;;;;;;6184748;23;20393;-79
2022/08/26 06:30:20;;;;;;;16.73;4.78;;;20.30;99.90;;;;;;6158361;23;20367;-79
2022/08/26 06:32:45;;;;;;;12.70;4.45;;;20.70;99.90;;;;;;6134068;23;20369;-80
2022/08/26 06:35:11;;;;;;;13.88;4.38;;;20.10;99.90;;;;;;6157891;23;20391;-79
2022/08/26 06:37:37;;;;;;;15.27;4.22;;;20.10;99.90;;;;;;6181927;23;20368;-79
2022/08/26 06:40:04;;;;;;;13.67;4.00;;;20.40;99.90;;;;;;6157898;23;20379;-78
2022/08/26 06:42:31;;;;;;;12.13;4.35;;;;;;;;;;6158896;23;20399;-77
2022/08/26 06:44:57;;;;;;;13.90;4.40;;;20.50;99.90;;;;;;6158506;23;20831;-79
2022/08/26 06:47:23;;;;;;;14.50;4.40;;;20.40;99.90;;;;;;6132704;23;20404;-78
2022/08/26 06:49:49;;;;;;;15.67;4.87;;;20.40;99.90;;;;;;6157924;23;20373;-77
2022/08/26 06:52:16;;;;;;;15.03;4.23;;;20.20;99.90;;;;;;6132870;23;20853;-77
2022/08/26 06:54:42;;;;;;;12.85;4.32;;;;;;;;;;6158028;23;20522;-77
2022/08/26 06:57:09;;;;;;;14.00;4.60;;;20.70;99.90;;;;;;6208242;23;20847;-77
2022/08/26 06:59:34;;;;;;;11.73;4.22;;;20.30;99.90;;;;;;6182666;23;20382;-77
2022/08/26 07:02:01;;;;;;;12.82;4.45;;;20.40;99.90;;;;;;6157615;23;20379;-78
2022/08/26 07:04:27;;;;;;;12.10;4.45;;;;;;;;;;6133062;23;20385;-77
2022/08/26 07:06:54;;;;;;;15.10;4.70;;;20.30;99.90;;;;;;6205741;23;20427;-76
2022/08/26 07:09:22;;;;;;;12.45;4.10;;;20.30;99.90;;;;;;6180627;23;20831;-79
2022/08/26 07:11:48;;;;;;;13.25;3.83;;;;;;;;;;6158816;23;20392;-80
2022/08/26 07:14:15;;;;;;;13.57;4.32;;;;;;;;;;6159211;23;20405;-80
2022/08/26 07:16:47;;;;;;;15.52;4.57;;;20.20;99.90;;;;;;6158676;23;20993;-79
2022/08/26 07:19:14;;;;;;;16.70;5.53;;;;;;;;;;6182751;23;20381;-80
2022/08/26 07:21:40;;;;;;;14.32;5.30;;;20.20;99.90;;;;;;6208949;23;20373;-80
2022/08/26 07:24:07;;;;;;;14.82;4.10;;;;;;;;;;6183688;23;20378;-79
2022/08/26 07:26:34;;;;;;;13.48;4.00;;;20.40;99.90;;;;;;6182983;23;20504;-80
2022/08/26 07:29:00;;;;;;;13.73;3.90;;;20.50;99.90;;;;;;6133560;23;20390;-78
2022/08/26 07:31:29;;;;;;;11.63;3.97;;;;;;;;;;6134108;23;20366;-77
2022/08/26 07:33:55;;;;;;;16.58;4.10;;;20.40;99.90;;;;;;6158040;23;20707;-77
2022/08/26 07:36:23;;;;;;;11.90;3.28;;;20.50;99.90;;;;;;6133632;23;20673;-77
2022/08/26 07:38:49;;;;;;;10.93;3.03;;;20.20;99.90;;;;;;6157479;23;20386;-77
2022/08/26 07:41:16;;;;;;;11.63;3.28;;;20.30;99.90;;;;;;6184613;23;20361;-78
2022/08/26 07:43:44;;;;;;;17.45;3.65;;;20.00;99.90;;;;;;6109384;23;20372;-77
2022/08/26 07:46:17;;;;;;;12.75;3.17;;;20.10;99.90;;;;;;6158396;23;20676;-78
2022/08/26 07:48:43;;;;;;;10.57;3.20;;;;;;;;;;6184114;23;20392;-78
2022/08/26 07:51:09;;;;;;;11.30;3.13;;;;;;;;;;6183155;23;20361;-77
2022/08/26 07:53:35;;;;;;;10.02;2.90;;;20.30;99.90;;;;;;6157668;23;20369;-78
2022/08/26 07:56:04;;;;;;;14.90;3.10;;;;;;;;;;6184884;23;20354;-78
2022/08/26 07:58:30;;;;;;;13.20;2.97;;;20.50;99.90;;;;;;6157745;23;20443;-79
2022/08/26 08:00:56;;;;;;;9.65;3.25;;;20.40;99.90;;;;;;6159656;23;20827;-78
2022/08/26 08:03:22;;;;;;;10.53;2.80;;;20.30;99.90;;;;;;6133949;23;20376;-76
2022/08/26 08:05:48;;;;;;;11.97;2.67;;;;;;;;;;6184629;23;20353;-77
2022/08/26 08:08:14;;;;;;;12.37;2.50;;;20.30;99.90;;;;;;6182373;23;20601;-77
2022/08/26 08:10:41;;;;;;;10.07;2.30;;;20.00;99.90;;;;;;6157911;23;20369;-77
2022/08/26 08:13:07;;;;;;;10.48;2.53;;;20.20;99.90;;;;;;6109305;23;20370;-78
2022/08/26 08:15:33;;;;;;;13.40;2.50;;;20.10;99.90;;;;;;6182247;23;20361;-77
2022/08/26 08:18:00;;;;;;;9.18;2.60;;;;;;;;;;6156628;23;20456;-77
2022/08/26 08:20:27;;;;;;;7.80;2.47;;;20.20;99.90;;;;;;6157178;23;20361;-78
2022/08/26 08:22:53;;;;;;;11.47;2.30;;;;;;;;;;6155669;23;20858;-77
2022/08/26 08:25:21;;;;;;;8.10;2.13;;;20.40;99.90;;;;;;6181949;23;20452;-77
2022/08/26 08:27:50;;;;;;;9.30;2.40;;;;;;;;;;6132676;23;20451;-77
2022/08/26 08:30:18;;;;;;;10.43;2.58;;;;;;;;;;6132986;23;20372;-76
2022/08/26 08:32:44;;;;;;;10.43;2.42;;;20.30;99.90;;;;;;6157410;23;20377;-77
2022/08/26 08:35:13;;;;;;;10.55;2.20;;;20.50;99.90;;;;;;6169229;23;20867;-77
2022/08/26 08:37:39;;;;;;;8.55;2.20;;;20.60;99.90;;;;;;6183986;23;20420;-78
2022/08/26 08:40:08;;;;;;;10.52;2.53;;;20.50;99.90;;;;;;6183034;23;20752;-77
2022/08/26 08:42:37;;;;;;;11.17;2.60;;;20.60;99.90;;;;;;6183979;23;20362;-77
2022/08/26 08:45:15;;;;;;;10.45;2.13;;;20.60;99.90;;;;;;6184518;23;20357;-77
2022/08/26 08:47:48;;;;;;;12.83;2.80;;;20.60;99.90;;;;;;6133029;23;20403;-80
2022/08/26 08:50:34;;;;;;;9.93;2.40;;;20.70;99.90;;;;;;6155010;23;20456;-77
2022/08/26 08:53:03;;;;;;;9.25;2.50;;;;;;;;;;6149420;23;20362;-78
2022/08/26 08:55:41;;;;;;;9.75;2.28;;;20.70;99.90;;;;;;6176625;23;20874;-77
2022/08/26 08:58:23;;;;;;;9.10;2.10;;;20.70;99.90;;;;;;6122076;23;21017;-79
2022/08/26 09:01:03;;;;;;;9.88;2.60;;;20.60;99.90;;;;;;6123348;23;20435;-79
2022/08/26 09:04:01;;;;;;;12.20;2.35;;;20.70;99.90;;;;;;6121852;23;20918;-78
2022/08/26 09:06:27;;;;;;;13.35;2.90;;;20.80;99.90;;;;;;6124869;23;20370;-78
2022/08/26 09:08:53;;;;;;;12.75;2.63;;;;;;;;;;6174431;23;20444;-77
2022/08/26 09:11:19;;;;;;;11.17;2.40;;;21.00;99.90;;;;;;6151033;23;20405;-76
2022/08/26 09:13:52;;;;;;;12.02;2.40;;;21.30;99.90;;;;;;6150417;23;20369;-77
2022/08/26 09:16:33;;;;;;;12.20;2.70;;;20.90;99.90;;;;;;6148839;23;20372;-77
2022/08/26 09:19:12;;;;;;;11.20;2.47;;;21.20;99.90;;;;;;6126486;23;20416;-76
2022/08/26 09:21:38;;;;;;;10.80;3.05;;;21.00;99.90;;;;;;6149464;23;20373;-77
2022/08/26 09:24:04;;;;;;;12.90;2.63;;;21.00;99.90;;;;;;6127130;23;20392;-78
2022/08/26 09:26:42;;;;;;;9.50;2.92;;;21.20;99.90;;;;;;6124083;23;20423;-77
2022/08/26 09:29:29;;;;;;;10.95;2.40;;;21.00;99.90;;;;;;6123595;23;20389;-78
2022/08/26 09:32:22;;;;;;;10.98;2.55;;;21.20;99.90;;;;;;6148368;23;20395;-77
2022/08/26 09:35:26;;;;;;;10.43;2.92;;;21.10;99.90;;;;;;6158599;23;20385;-76
2022/08/26 09:37:52;;;;;;;10.40;2.72;;;20.80;99.90;;;;;;6148797;23;20373;-77
2022/08/26 09:40:18;;;;;;;11.52;2.40;;;;;;;;;;6176111;23;20839;-77
2022/08/26 09:42:45;;;;;;;11.98;2.53;;;;;;;;;;6173338;23;20396;-76
2022/08/26 09:45:11;;;;;;;9.85;2.72;;;20.60;99.90;;;;;;6173784;23;20681;-76
2022/08/26 09:47:46;;;;;;;9.07;2.50;;;20.90;99.90;;;;;;6147817;23;20401;-76
2022/08/26 09:50:36;;;;;;;11.68;2.53;;;20.80;99.90;;;;;;6173954;23;20796;-75
2022/08/26 09:53:18;;;;;;;10.20;2.58;;;21.20;99.90;;;;;;6176881;23;20369;-75
2022/08/26 09:55:49;;;;;;;11.55;2.90;;;20.90;99.90;;;;;;6181250;23;20385;-75
2022/08/26 09:58:34;;;;;;;11.45;2.90;;;20.80;99.90;;;;;;6179023;23;20369;-75
2022/08/26 10:01:03;;;;;;;11.88;3.10;;;20.80;99.90;;;;;;6156368;23;20440;-76
2022/08/26 10:03:31;;;;;;;12.85;3.20;;;;;;;;;;6180609;23;20838;-77
2022/08/26 10:06:06;;;;;;;9.77;2.20;;;21.20;99.90;;;;;;6205064;23;20373;-76
2022/08/26 10:08:39;;;;;;;11.00;2.90;;;20.90;99.90;;;;;;6180989;23;20585;-77
2022/08/26 10:11:10;;;;;;;9.13;2.30;;;;;;;;;;6181517;23;20365;-76
2022/08/26 10:13:47;;;;;;;8.07;2.05;;;20.70;99.90;;;;;;6180948;23;20373;-76
2022/08/26 10:16:21;;;;;;;10.13;2.80;;;20.80;99.90;;;;;;6180919;23;20765;-75
2022/08/26 10:19:02;;;;;;;12.38;2.67;;;20.50;99.90;;;;;;6156913;23;20464;-76
2022/08/26 10:21:37;;;;;;;9.88;2.38;;;20.50;99.90;;;;;;6156578;23;20369;-77
2022/08/26 10:24:05;;;;;;;7.95;2.65;;;20.70;99.90;;;;;;6181742;23;20444;-76
2022/08/26 10:26:37;;;;;;;10.73;2.55;;;20.60;99.90;;;;;;6178852;23;20423;-76
2022/08/26 10:29:15;;;;;;;10.93;2.47;;;20.60;99.90;;;;;;6156341;23;20393;-76
2022/08/26 10:32:03;;;;;;;10.77;2.67;;;20.50;99.90;;;;;;6181524;23;20391;-76
2022/08/26 10:34:31;;;;;;;10.30;2.45;;;20.90;99.90;;;;;;6181230;23;20389;-76
2022/08/26 10:36:58;;;;;;;10.93;2.70;;;21.10;99.90;;;;;;6176949;23;20375;-75
2022/08/26 10:39:41;;;;;;;10.40;2.65;;;21.00;99.90;;;;;;6181034;23;20381;-75
2022/08/26 10:42:14;;;;;;;10.93;2.50;;;21.20;99.90;;;;;;6177627;23;20380;-76
2022/08/26 10:44:43;;;;;;;7.88;2.65;;;21.10;99.90;;;;;;6180048;23;20365;-75
2022/08/26 10:47:15;;;;;;;7.63;2.22;;;21.00;99.90;;;;;;6156067;23;20401;-76
2022/08/26 10:49:43;;;;;;;6.60;1.90;;;21.00;99.90;;;;;;6180954;23;20400;-77
2022/08/26 10:52:31;;;;;;;10.23;2.00;;;20.80;99.90;;;;;;6132579;23;20373;-76
2022/08/26 10:55:21;;;;;;;6.28;1.70;;;21.10;99.90;;;;;;6181585;23;20722;-76
2022/08/26 10:58:04;;;;;;;5.78;1.92;;;20.70;99.90;;;;;;6181154;23;20372;-74
2022/08/26 11:03:37;;;;;;;10.07;2.00;;;20.70;99.90;;;;;;6182588;23;20561;-76
2022/08/26 11:06:16;;;;;;;4.85;1.52;;;;;;;;;;6158079;23;20444;-76
2022/08/26 11:08:56;;;;;;;5.43;1.50;;;21.20;99.90;;;;;;6183668;23;20915;-75
2022/08/26 11:11:40;;;;;;;7.80;1.58;;;20.90;99.90;;;;;;6183215;23;20404;-76
2022/08/26 11:14:05;;;;;;;4.82;1.40;;;21.10;99.90;;;;;;6183441;23;20369;-76
2022/08/26 11:16:48;;;;;;;6.25;1.60;;;20.90;99.90;;;;;;6182944;23;20366;-76
2022/08/26 11:19:41;;;;;;;6.53;1.90;;;21.20;99.90;;;;;;6182751;23;20452;-76
2022/08/26 11:22:34;;;;;;;9.48;2.38;;;20.80;99.90;;;;;;6183102;23;20368;-76
2022/08/26 11:25:07;;;;;;;7.28;1.88;;;20.80;99.90;;;;;;6183062;23;20373;-75
2022/08/26 11:27:36;;;;;;;8.63;2.03;;;20.60;99.90;;;;;;6158214;23;20376;-75
2022/08/26 11:30:07;;;;;;;6.25;1.83;;;20.60;99.90;;;;;;6182495;23;20369;-76
2022/08/26 11:32:33;;;;;;;9.02;2.08;;;;;;;;;;6183127;23;20428;-76
2022/08/26 11:35:08;;;;;;;8.30;1.98;;;20.70;99.90;;;;;;6183214;23;20447;-75
2022/08/26 11:38:08;;;;;;;6.73;1.73;;;20.90;99.90;;;;;;6182166;23;20372;-76
2022/08/26 11:40:37;;;;;;;7.22;1.65;;;;;;;;;;6149147;23;20372;-76
2022/08/26 11:43:24;;;;;;;8.40;1.80;;;20.80;99.90;;;;;;6207651;23;20444;-76
2022/08/26 11:46:04;;;;;;;7.82;1.92;;;20.90;99.90;;;;;;6158030;23;20366;-76
2022/08/26 11:48:36;;;;;;;6.15;1.70;;;21.10;99.90;;;;;;6182458;23;20393;-75
2022/08/26 11:51:07;;;;;;;6.35;1.98;;;20.80;99.90;;;;;;6183063;23;20372;-76
2022/08/26 11:53:36;;;;;;;6.38;1.92;;;;;;;;;;6182314;23;20753;-76
2022/08/26 11:56:06;;;;;;;10.38;2.13;;;21.10;99.90;;;;;;6183425;23;20389;-76
2022/08/26 11:58:34;;;;;;;9.13;1.92;;;20.80;99.90;;;;;;6183042;23;20373;-77
2022/08/26 12:01:07;;;;;;;6.77;1.90;;;20.80;99.90;;;;;;6158204;23;20826;-76
2022/08/26 12:03:45;;;;;;;7.27;1.80;;;20.60;99.90;;;;;;6158081;23;20385;-77
2022/08/26 12:06:23;;;;;;;7.87;2.20;;;20.80;99.90;;;;;;6157304;23;20377;-77
2022/08/26 12:08:49;;;;;;;8.50;2.30;;;;;;;;;;6182719;23;20831;-76
2022/08/26 12:11:25;;;;;;;6.78;1.83;;;21.10;99.90;;;;;;6182640;23;20365;-76
2022/08/26 12:14:19;;;;;;;7.93;1.88;;;21.20;99.90;;;;;;6184618;23;20431;-77
2022/08/26 12:16:45;;;;;;;8.32;2.22;;;20.70;99.90;;;;;;6182688;23;20366;-77
2022/08/26 12:19:25;;;;;;;8.35;2.28;;;21.00;99.90;;;;;;6182921;23;20403;-76
2022/08/26 12:22:05;;;;;;;7.57;2.22;;;20.40;99.90;;;;;;6182957;23;20381;-76
2022/08/26 12:24:31;;;;;;;6.38;2.13;;;20.40;99.90;;;;;;6158061;23;20373;-77
2022/08/26 12:27:16;;;;;;;9.50;2.42;;;20.40;99.90;;;;;;6182463;23;20373;-78
2022/08/26 12:29:43;;;;;;;7.80;1.88;;;;;;;;;;6182485;23;20443;-77
2022/08/26 12:32:17;;;;;;;7.10;2.38;;;20.60;99.90;;;;;;6158290;23;20369;-78
2022/08/26 12:34:46;;;;;;;11.77;2.22;;;20.80;99.90;;;;;;6182346;23;20412;-78
2022/08/26 12:37:13;;;;;;;7.22;2.22;;;20.70;99.90;;;;;;6157716;23;20835;-77
2022/08/26 12:39:43;;;;;;;10.80;2.28;;;20.60;99.90;;;;;;6157492;23;20369;-77
2022/08/26 12:42:12;;;;;;;5.38;2.08;;;20.50;99.90;;;;;;6181467;23;20448;-76
2022/08/26 12:44:40;;;;;;;8.37;1.90;;;20.70;99.90;;;;;;6182155;23;20839;-76
2022/08/26 12:47:14;;;;;;;5.57;1.80;;;20.80;99.90;;;;;;6182631;23;20452;-76
2022/08/26 12:49:41;;;;;;;7.70;1.90;;;21.10;99.90;;;;;;6157331;23;20398;-76
2022/08/26 12:52:28;;;;;;;6.25;2.10;;;;;;;;;;6182252;23;20366;-77
2022/08/26 12:55:06;;;;;;;7.77;2.23;;;20.90;99.90;;;;;;6207383;23;20452;-76
2022/08/26 12:57:36;;;;;;;8.55;2.40;;;20.80;99.90;;;;;;6182373;23;20372;-76
2022/08/26 13:00:21;;;;;;;8.43;2.22;;;20.50;99.90;;;;;;6181700;23;20365;-75
2022/08/26 13:02:47;;;;;;;9.63;2.28;;;20.50;99.90;;;;;;6157035;23;20369;-77
2022/08/26 13:05:26;;;;;;;10.93;2.63;;;20.60;99.90;;;;;;6158046;23;20369;-77
2022/08/26 13:08:09;;;;;;;7.97;2.70;;;20.90;99.90;;;;;;6182538;23;20400;-75
2022/08/26 13:10:38;;;;;;;10.50;2.80;;;20.50;99.90;;;;;;6182807;23;20370;-77
2022/08/26 13:13:04;;;;;;;8.30;2.30;;;20.60;99.90;;;;;;6157277;23;20366;-76
2022/08/26 13:15:30;;;;;;;7.88;2.60;;;20.60;99.90;;;;;;6181565;23;20376;-77
2022/08/26 13:17:56;;;;;;;8.55;2.47;;;20.30;99.90;;;;;;6182274;23;20376;-76
2022/08/26 13:20:22;;;;;;;9.15;2.25;;;;;;;;;;6132937;23;20411;-76
2022/08/26 13:22:48;;;;;;;9.07;2.90;;;20.10;99.90;;;;;;6181951;23;20373;-77
2022/08/26 13:25:15;;;;;;;9.48;2.75;;;20.00;99.90;;;;;;6182093;23;20397;-77